Billings, MO (65610)

9:02 PM CDT on August 23, 2016 (GMT -0500)
Rose Hill Acres | | Change Station

Elev 1339 ft 37.09 °N, 93.55 °W | Updated 1 second ago

Partly Cloudy
Partly Cloudy
76.5 °F
Feels Like 77 °F
N
2.1
Wind Variable Wind from SSE
Gusts 5.4 mph

Today
High -- | Low -- °F
--% Chance of Precip.
Yesterday
High -- | Low -- °F
Precip. -- in
Pressure 30.02 in
Visibility 10.0 miles
Clouds Few 3600 ft
Heat Index 77 °F
Dew Point 72 °F
Humidity 86%
Rainfall 0.79 in
Snow Depth Not available.
6:38 AM 7:54 PM
Waning Gibbous, 62% visible
METAR KSGF 240152Z AUTO 17011KT 10SM FEW036 26/21 A3005 RMK AO2 SLP164 T02610211
Pressure 30.02 in
Visibility 10.0 miles
Clouds Few 3600 ft
Heat Index 77 °F
Dew Point 72 °F
Humidity 86%
Rainfall 0.79 in
Snow Depth Not available.
6:38 AM 7:54 PM
Waning Gibbous, 62% visible
METAR KSGF 240152Z AUTO 17011KT 10SM FEW036 26/21 A3005 RMK AO2 SLP164 T02610211

10-Day Weather Forecast

Almanac

Astronomy

Aug. 23, 2016 Rise Set
Actual Time
Civil Twilight
Nautical Twilight
Astronomical Twilight
Moon
Length of Visible Light
Length of Day
Tomorrow will be .
, % of the Moon is Illuminated

Today's Extremes

State Highs State Lows

Community

WunderPhotos

Upload Photos

1,934,523 photos uploaded!

WunderBlog® & News

Nearby

Air Quality

  Air Quality AQ Index Pollutant
Not available.

Snow Depth

Station Depth Elevation

Earthquake Activity

City Distance Mag. Time & Date
Minimum magnitude displayed is 2.5.

Coastal Water Temperatures

Place Temperature

Stations

Nearby Weather Stations

Station Location Temp. Windchill Dew Point Humidity Wind Precip. Elev Updated Type
                   

Watches & Warnings

There are currently no watches in effect.